createdAt,value
2017-10-22T00:00:40.827Z,92.80
2017-10-22T00:03:43.839Z,93.10
2017-10-22T00:06:46.558Z,92.90
2017-10-22T00:09:49.008Z,92.90
2017-10-22T00:12:50.925Z,93.00
2017-10-22T00:15:53.738Z,93.30
2017-10-22T00:18:55.678Z,93.30
2017-10-22T00:21:57.694Z,93.30
2017-10-22T00:24:59.672Z,93.40
2017-10-22T00:28:02.486Z,94.00
2017-10-22T00:31:04.467Z,94.00
2017-10-22T00:34:07.269Z,94.10
2017-10-22T00:37:09.546Z,94.20
2017-10-22T00:40:12.261Z,94.40
2017-10-22T00:43:14.238Z,94.40
2017-10-22T00:46:16.218Z,94.50
2017-10-22T00:49:19.944Z,94.70
2017-10-22T00:52:22.784Z,94.80
2017-10-22T00:55:24.710Z,94.80
2017-10-22T00:58:26.685Z,94.80
2017-10-22T01:01:28.674Z,94.70
2017-10-22T01:04:30.671Z,94.90
2017-10-22T01:07:33.383Z,94.90
2017-10-22T01:10:35.775Z,94.90
2017-10-22T01:13:37.722Z,94.80
2017-10-22T01:16:40.135Z,94.80
2017-10-22T01:19:42.837Z,94.90
2017-10-22T01:22:45.569Z,94.90
2017-10-22T01:25:47.488Z,94.90
2017-10-22T01:28:49.467Z,94.90
2017-10-22T01:31:51.393Z,95.00
2017-10-22T01:34:54.101Z,95.10
2017-10-22T01:37:56.035Z,95.10
2017-10-22T01:40:58.004Z,95.20
2017-10-22T01:43:59.950Z,95.10
2017-10-22T01:47:01.902Z,95.10
2017-10-22T01:50:03.893Z,95.10
2017-10-22T01:53:06.998Z,95.10
2017-10-22T01:56:08.953Z,95.10
2017-10-22T01:59:11.777Z,95.10
2017-10-22T02:02:13.981Z,95.00
2017-10-22T02:05:16.690Z,95.00
2017-10-22T02:08:19.411Z,95.00
2017-10-22T02:11:21.714Z,95.00
2017-10-22T02:14:23.638Z,95.00
2017-10-22T02:17:26.505Z,95.00
2017-10-22T02:20:28.525Z,95.00
2017-10-22T02:23:30.505Z,94.90
2017-10-22T02:26:32.462Z,94.90
2017-10-22T02:29:34.437Z,95.20
2017-10-22T02:32:36.385Z,94.90
2017-10-22T02:35:38.702Z,95.10
2017-10-22T02:38:40.654Z,95.10
2017-10-22T02:41:43.765Z,95.50
2017-10-22T02:44:46.469Z,95.60
2017-10-22T02:47:48.422Z,95.60
2017-10-22T02:50:50.438Z,95.60
2017-10-22T02:53:52.823Z,95.70
2017-10-22T02:56:54.746Z,95.70
2017-10-22T02:59:56.705Z,95.90
2017-10-22T03:02:58.630Z,95.90
2017-10-22T03:06:01.874Z,96.30
2017-10-22T03:09:04.599Z,96.00
2017-10-22T03:12:06.806Z,96.00
2017-10-22T03:15:08.732Z,96.00
2017-10-22T03:18:10.681Z,96.00
2017-10-22T03:21:17.647Z,96.10
2017-10-22T03:24:19.770Z,96.10
2017-10-22T03:27:21.833Z,96.00
2017-10-22T03:30:24.198Z,96.00
2017-10-22T03:33:27.010Z,95.80
2017-10-22T03:36:28.956Z,95.80
2017-10-22T03:39:30.953Z,95.80
2017-10-22T03:42:33.747Z,95.60
2017-10-22T03:45:35.948Z,95.60
2017-10-22T03:48:39.169Z,95.60
2017-10-22T03:51:42.229Z,95.60
2017-10-22T03:54:44.274Z,95.60
2017-10-22T03:57:46.353Z,95.60
2017-10-22T04:00:48.448Z,95.70
2017-10-22T04:03:50.409Z,95.70
2017-10-22T04:06:53.621Z,95.70
2017-10-22T04:09:56.429Z,95.60
2017-10-22T04:12:59.293Z,95.60
2017-10-22T04:16:01.262Z,95.60
2017-10-22T04:19:03.376Z,95.60
2017-10-22T04:22:05.306Z,95.50
2017-10-22T04:25:07.347Z,95.50
2017-10-22T04:28:09.270Z,95.70
2017-10-22T04:31:11.430Z,95.30
2017-10-22T04:34:14.265Z,95.70
2017-10-22T04:37:16.221Z,95.30
2017-10-22T04:40:18.923Z,95.40
2017-10-22T04:43:21.723Z,95.40
2017-10-22T04:46:24.546Z,95.50
2017-10-22T04:49:26.846Z,95.50
2017-10-22T04:52:28.810Z,95.50
2017-10-22T04:55:30.777Z,95.30
2017-10-22T04:58:33.591Z,95.10
2017-10-22T05:01:36.806Z,95.00
2017-10-22T05:04:38.750Z,95.00
2017-10-22T05:07:40.711Z,94.90
2017-10-22T05:10:42.757Z,94.80
2017-10-22T05:13:45.148Z,94.80
2017-10-22T05:16:47.129Z,94.60
2017-10-22T05:19:49.078Z,94.60
2017-10-22T05:22:50.996Z,94.70
2017-10-22T05:25:53.189Z,94.80
2017-10-22T05:28:55.157Z,94.90
2017-10-22T05:31:57.948Z,94.70
2017-10-22T05:35:00.651Z,95.00
2017-10-22T05:38:03.555Z,94.70
2017-10-22T05:41:06.236Z,94.50
2017-10-22T05:44:08.210Z,94.50
2017-10-22T05:47:10.148Z,94.40
2017-10-22T05:50:12.269Z,94.40
2017-10-22T05:53:14.307Z,94.30
2017-10-22T05:56:16.387Z,94.30
2017-10-22T05:59:19.110Z,94.40
2017-10-22T06:02:21.154Z,94.40
2017-10-22T06:05:23.150Z,94.40
2017-10-22T06:08:25.880Z,94.10
2017-10-22T06:11:27.793Z,94.10
2017-10-22T06:14:29.753Z,94.00
2017-10-22T06:17:40.588Z,93.90
2017-10-22T06:20:42.633Z,93.70
2017-10-22T06:23:44.570Z,93.60
2017-10-22T06:26:47.294Z,93.30
2017-10-22T06:29:49.267Z,93.20
2017-10-22T06:32:51.362Z,93.10
2017-10-22T06:35:53.285Z,93.00
2017-10-22T06:38:55.235Z,93.00
2017-10-22T06:41:57.182Z,92.80
2017-10-22T06:45:00.215Z,92.80
2017-10-22T06:48:02.372Z,92.80
2017-10-22T06:51:05.892Z,92.80
2017-10-22T06:54:08.717Z,92.60
2017-10-22T06:57:10.682Z,92.60
2017-10-22T07:00:12.672Z,91.50
2017-10-22T07:03:15.786Z,91.00
2017-10-22T07:06:17.789Z,91.00
2017-10-22T07:09:19.815Z,90.60
2017-10-22T07:12:21.745Z,90.40
2017-10-22T07:15:24.341Z,90.10
2017-10-22T07:18:26.289Z,90.20
2017-10-22T07:21:28.781Z,89.20
2017-10-22T07:24:31.529Z,88.40
2017-10-22T07:27:33.497Z,88.10
2017-10-22T07:30:35.463Z,88.30
2017-10-22T07:33:38.178Z,86.00
2017-10-22T07:36:40.129Z,86.00
2017-10-22T07:39:42.863Z,82.90
2017-10-22T07:42:44.821Z,82.90
2017-10-22T07:45:47.565Z,81.70
2017-10-22T07:48:49.494Z,81.70
2017-10-22T07:51:51.666Z,82.10
2017-10-22T07:54:53.702Z,81.90
2017-10-22T07:57:56.798Z,80.30
2017-10-22T08:00:59.620Z,79.80
2017-10-22T08:04:01.978Z,79.80
2017-10-22T08:07:03.921Z,79.60
2017-10-22T08:10:06.582Z,79.60
2017-10-22T08:13:09.386Z,79.50
2017-10-22T08:16:12.176Z,80.00
2017-10-22T08:19:14.985Z,80.10
2017-10-22T08:22:17.780Z,80.60
2017-10-22T08:25:20.509Z,80.50
2017-10-22T08:28:22.570Z,80.40
2017-10-22T08:31:25.380Z,79.70
2017-10-22T08:34:27.436Z,79.70
2017-10-22T08:37:29.462Z,79.90
2017-10-22T08:40:31.539Z,79.80
2017-10-22T08:43:34.250Z,81.80
2017-10-22T08:46:36.216Z,81.80
2017-10-22T08:49:39.014Z,82.10
2017-10-22T08:52:41.276Z,82.10
2017-10-22T08:55:43.241Z,83.30
2017-10-22T08:58:45.210Z,84.10
2017-10-22T09:01:47.134Z,85.60
2017-10-22T09:04:49.081Z,87.20
2017-10-22T09:07:51.025Z,89.40
2017-10-22T09:10:53.395Z,90.00
2017-10-22T09:13:56.832Z,91.50
2017-10-22T09:16:59.550Z,92.10
2017-10-22T09:20:01.491Z,92.00
2017-10-22T09:23:03.556Z,93.00
2017-10-22T09:26:05.479Z,93.60
2017-10-22T09:29:08.339Z,94.50
2017-10-22T09:32:10.262Z,94.50
2017-10-22T09:35:12.997Z,95.00
2017-10-22T09:38:14.927Z,95.00
2017-10-22T09:41:17.847Z,95.20
2017-10-22T09:44:20.560Z,95.30
2017-10-22T09:47:22.527Z,95.30
2017-10-22T09:50:25.211Z,95.50
2017-10-22T09:53:27.227Z,95.20
2017-10-22T09:56:29.182Z,95.40
2017-10-22T09:59:32.224Z,95.60
2017-10-22T10:02:34.155Z,95.50
2017-10-22T10:05:36.199Z,95.70
2017-10-22T10:08:38.128Z,95.70
2017-10-22T10:11:40.653Z,95.70
2017-10-22T10:14:43.359Z,95.70
2017-10-22T10:17:45.334Z,95.70
2017-10-22T10:20:48.120Z,95.80
2017-10-22T10:23:50.436Z,95.80
2017-10-22T10:26:52.378Z,95.80
2017-10-22T10:29:54.347Z,96.00
2017-10-22T10:32:56.285Z,96.10
2017-10-22T10:35:58.225Z,96.10
2017-10-22T10:39:00.262Z,96.20
2017-10-22T10:42:02.260Z,96.20
2017-10-22T10:45:04.209Z,96.30
2017-10-22T10:48:06.966Z,96.30
2017-10-22T10:51:08.926Z,96.30
2017-10-22T10:54:11.265Z,96.40
2017-10-22T10:57:14.022Z,96.20
2017-10-22T11:00:15.998Z,95.90
2017-10-22T11:03:17.925Z,95.90
2017-10-22T11:06:20.150Z,95.80
2017-10-22T11:09:22.077Z,95.80
2017-10-22T11:12:25.211Z,95.80
2017-10-22T11:15:27.159Z,95.70
2017-10-22T11:18:29.190Z,95.70
2017-10-22T11:21:31.990Z,95.60
2017-10-22T11:24:34.795Z,95.50
2017-10-22T11:27:36.840Z,95.50
2017-10-22T11:30:39.180Z,95.40
2017-10-22T11:33:41.130Z,95.40
2017-10-22T11:36:43.298Z,95.40
2017-10-22T11:39:45.246Z,95.40
2017-10-22T11:42:47.259Z,95.30
2017-10-22T11:45:49.285Z,95.20
2017-10-22T11:48:52.500Z,95.20
2017-10-22T11:51:55.317Z,95.10
2017-10-22T11:54:57.548Z,95.10
2017-10-22T11:57:59.625Z,95.10
2017-10-22T12:01:01.673Z,95.00
2017-10-22T12:04:03.630Z,95.10
2017-10-22T12:07:05.933Z,95.00
2017-10-22T12:10:08.647Z,95.40
2017-10-22T12:13:10.622Z,95.40
2017-10-22T12:16:13.339Z,95.30
2017-10-22T12:19:15.513Z,95.30
2017-10-22T12:22:18.229Z,95.50
2017-10-22T12:25:20.238Z,95.50
2017-10-22T12:28:22.198Z,95.40
2017-10-22T12:31:24.148Z,95.50
2017-10-22T12:34:26.864Z,95.50
2017-10-22T12:37:29.622Z,95.30
2017-10-22T12:40:31.549Z,95.40
2017-10-22T12:43:35.454Z,95.10
2017-10-22T12:46:37.456Z,95.10
2017-10-22T12:49:39.747Z,94.50
2017-10-22T12:52:42.565Z,94.10
2017-10-22T12:55:45.767Z,94.10
2017-10-22T12:58:48.566Z,94.00
2017-10-22T13:01:51.351Z,94.10
2017-10-22T13:04:53.351Z,94.10
2017-10-22T13:07:55.328Z,94.20
2017-10-22T13:10:58.329Z,93.80
2017-10-22T13:14:01.839Z,93.90
2017-10-22T13:17:04.638Z,93.90
2017-10-22T13:20:06.614Z,93.90
2017-10-22T13:23:08.619Z,93.60
2017-10-22T13:26:11.353Z,94.30
2017-10-22T13:29:13.296Z,94.30
2017-10-22T13:32:16.269Z,93.60
2017-10-22T13:35:18.550Z,93.50
2017-10-22T13:38:20.534Z,93.40
2017-10-22T13:41:22.503Z,93.00
2017-10-22T13:44:24.478Z,92.60
2017-10-22T13:47:26.439Z,92.40
2017-10-22T13:50:29.401Z,91.30
2017-10-22T13:53:31.345Z,91.30
2017-10-22T13:56:33.429Z,90.70
2017-10-22T13:59:35.402Z,90.00
2017-10-22T14:02:37.369Z,88.60
2017-10-22T14:05:40.179Z,88.60
2017-10-22T14:08:42.981Z,88.70
2017-10-22T14:11:45.707Z,89.90
2017-10-22T14:14:47.742Z,89.90
2017-10-22T14:17:51.286Z,90.60
2017-10-22T14:20:54.216Z,90.60
2017-10-22T14:23:56.174Z,90.70
2017-10-22T14:26:58.511Z,90.70
2017-10-22T14:30:00.529Z,91.10
2017-10-22T14:33:02.928Z,90.70
2017-10-22T14:36:05.727Z,89.60
2017-10-22T14:39:08.498Z,89.20
2017-10-22T14:42:10.527Z,89.10
2017-10-22T14:45:13.590Z,89.00
2017-10-22T14:48:16.439Z,89.00
2017-10-22T14:51:19.189Z,88.70
2017-10-22T14:54:22.097Z,88.80
2017-10-22T14:57:24.425Z,88.90
2017-10-22T15:00:27.218Z,89.00
2017-10-22T15:03:29.206Z,89.00
2017-10-22T15:06:31.881Z,90.40
2017-10-22T15:09:34.301Z,90.40
2017-10-22T15:12:37.117Z,91.30
2017-10-22T15:15:39.485Z,91.30
2017-10-22T15:18:41.462Z,91.40
2017-10-22T15:21:43.761Z,91.20
2017-10-22T15:24:46.581Z,91.90
2017-10-22T15:27:49.389Z,91.70
2017-10-22T15:30:51.369Z,91.70
2017-10-22T15:33:54.165Z,91.90
2017-10-22T15:36:56.882Z,91.90
2017-10-22T15:39:58.826Z,91.90
2017-10-22T15:43:00.813Z,91.90
2017-10-22T15:46:02.774Z,92.10
2017-10-22T15:49:04.737Z,92.10
2017-10-22T15:52:06.797Z,92.20
2017-10-22T15:55:08.731Z,92.10
2017-10-22T15:58:10.734Z,92.10
2017-10-22T16:01:12.669Z,92.00
2017-10-22T16:04:14.810Z,92.20
2017-10-22T16:07:17.631Z,92.60
2017-10-22T16:10:20.003Z,92.60
2017-10-22T16:13:23.650Z,93.30
2017-10-22T16:16:25.694Z,93.30
2017-10-22T16:19:27.878Z,93.60
2017-10-22T16:22:29.917Z,93.80
2017-10-22T16:25:31.857Z,93.80
2017-10-22T16:28:33.859Z,93.90
2017-10-22T16:31:36.002Z,94.00
2017-10-22T16:34:38.042Z,94.20
2017-10-22T16:37:39.997Z,94.30
2017-10-22T16:40:42.294Z,94.30
2017-10-22T16:43:45.110Z,94.40
2017-10-22T16:46:48.227Z,94.30
2017-10-22T16:49:50.180Z,94.40
2017-10-22T16:52:52.863Z,94.30
2017-10-22T16:55:54.817Z,94.30
2017-10-22T16:58:56.861Z,94.40
2017-10-22T17:01:59.573Z,94.50
2017-10-22T17:05:01.627Z,94.40
2017-10-22T17:08:03.630Z,94.40
2017-10-22T17:11:13.013Z,94.40
2017-10-22T17:14:14.973Z,94.40
2017-10-22T17:17:17.794Z,94.60
2017-10-22T17:20:20.058Z,94.60
2017-10-22T17:23:22.853Z,94.60
2017-10-22T17:26:24.826Z,94.60
2017-10-22T17:29:26.779Z,94.80
2017-10-22T17:32:28.775Z,94.60
2017-10-22T17:35:30.812Z,94.60
2017-10-22T17:38:32.787Z,94.60
2017-10-22T17:41:35.576Z,94.60
2017-10-22T17:44:38.278Z,94.50
2017-10-22T17:47:41.382Z,94.50
2017-10-22T17:50:43.386Z,94.50
2017-10-22T17:53:45.374Z,94.90
2017-10-22T17:56:47.998Z,94.40
2017-10-22T17:59:50.103Z,94.30
2017-10-22T18:02:52.122Z,94.40
2017-10-22T18:05:54.891Z,94.20
2017-10-22T18:08:56.934Z,94.30
2017-10-22T18:11:59.021Z,94.20
2017-10-22T18:15:00.983Z,94.00
2017-10-22T18:18:03.707Z,94.00
2017-10-22T18:21:05.636Z,94.00
2017-10-22T18:24:07.662Z,93.90
2017-10-22T18:27:10.396Z,94.00
2017-10-22T18:30:12.378Z,94.00
2017-10-22T18:33:14.338Z,94.00
2017-10-22T18:36:17.175Z,94.20
2017-10-22T18:39:19.227Z,94.20
2017-10-22T18:42:22.061Z,94.20
2017-10-22T18:45:24.019Z,94.20
2017-10-22T18:48:26.770Z,94.10
2017-10-22T18:51:28.755Z,94.10
2017-10-22T18:54:30.773Z,94.10
2017-10-22T18:57:32.768Z,94.60
2017-10-22T19:00:35.587Z,94.60
2017-10-22T19:03:37.782Z,94.60
2017-10-22T19:06:39.953Z,94.60
2017-10-22T19:09:42.955Z,94.50
2017-10-22T19:12:45.687Z,94.60
2017-10-22T19:15:47.632Z,94.60
2017-10-22T19:18:49.583Z,94.60
2017-10-22T19:21:51.606Z,94.80
2017-10-22T19:24:54.824Z,95.00
2017-10-22T19:27:57.619Z,94.90
2017-10-22T19:30:59.627Z,94.90
2017-10-22T19:34:01.571Z,94.80
2017-10-22T19:37:04.378Z,94.80
2017-10-22T19:40:06.398Z,94.90
2017-10-22T19:43:08.875Z,94.90
2017-10-22T19:46:11.675Z,95.00
2017-10-22T19:49:14.392Z,95.10
2017-10-22T19:52:17.180Z,94.90
2017-10-22T19:55:19.280Z,94.90
2017-10-22T19:58:22.087Z,94.90
2017-10-22T20:01:25.526Z,94.90
2017-10-22T20:04:27.464Z,94.90
2017-10-22T20:07:29.469Z,95.00
2017-10-22T20:10:32.290Z,95.00
2017-10-22T20:13:34.369Z,95.00
2017-10-22T20:16:36.321Z,95.10
2017-10-22T20:19:38.341Z,95.10
2017-10-22T20:22:40.291Z,95.10
2017-10-22T20:25:42.383Z,95.10
2017-10-22T20:28:44.417Z,95.10
2017-10-22T20:31:46.466Z,95.10
2017-10-22T20:34:49.164Z,95.30
2017-10-22T20:37:51.893Z,95.30
2017-10-22T20:40:53.815Z,95.30
2017-10-22T20:43:55.856Z,95.30
2017-10-22T20:46:57.828Z,95.40
2017-10-22T20:49:59.793Z,95.30
2017-10-22T20:53:02.631Z,95.20
2017-10-22T20:56:04.688Z,95.20
2017-10-22T20:59:07.508Z,95.20
2017-10-22T21:02:09.558Z,95.20
2017-10-22T21:05:11.543Z,95.20
2017-10-22T21:08:13.835Z,95.30
2017-10-22T21:11:15.763Z,95.30
2017-10-22T21:14:17.806Z,95.30
2017-10-22T21:17:20.512Z,95.00
2017-10-22T21:20:23.609Z,95.00
2017-10-22T21:23:25.597Z,95.00
2017-10-22T21:26:27.573Z,95.00
2017-10-22T21:29:29.568Z,94.80
2017-10-22T21:32:31.517Z,94.40
2017-10-22T21:35:33.544Z,94.30
2017-10-22T21:38:36.341Z,94.20
2017-10-22T21:41:39.044Z,94.10
2017-10-22T21:44:42.167Z,94.00
2017-10-22T21:47:44.121Z,94.00
2017-10-22T21:50:47.135Z,94.10
2017-10-22T21:53:49.138Z,93.80
2017-10-22T21:56:52.404Z,93.50
2017-10-22T21:59:54.460Z,93.50
2017-10-22T22:02:56.498Z,93.50
2017-10-22T22:05:58.658Z,93.40
2017-10-22T22:09:00.986Z,93.50
2017-10-22T22:12:03.694Z,93.10
2017-10-22T22:15:06.498Z,93.00
2017-10-22T22:18:09.209Z,93.30
2017-10-22T22:21:11.205Z,93.00
2017-10-22T22:24:13.149Z,92.80
2017-10-22T22:27:15.885Z,92.50
2017-10-22T22:30:17.834Z,92.20
2017-10-22T22:33:20.742Z,92.10
2017-10-22T22:36:23.435Z,91.80
2017-10-22T22:39:25.420Z,91.80
2017-10-22T22:42:28.209Z,91.70
2017-10-22T22:45:30.214Z,91.50
2017-10-22T22:48:32.901Z,91.50
2017-10-22T22:51:34.884Z,91.50
2017-10-22T22:54:36.945Z,91.30
2017-10-22T22:57:39.248Z,91.60
2017-10-22T23:00:41.193Z,91.40
2017-10-22T23:03:43.146Z,91.50
2017-10-22T23:06:45.919Z,91.40
2017-10-22T23:09:48.346Z,91.40
2017-10-22T23:12:50.397Z,91.40
2017-10-22T23:15:52.406Z,91.50
2017-10-22T23:18:55.213Z,91.50
2017-10-22T23:21:58.256Z,91.50
2017-10-22T23:25:00.364Z,91.40
2017-10-22T23:28:02.701Z,91.40
2017-10-22T23:31:04.656Z,91.30
2017-10-22T23:34:06.734Z,91.40
2017-10-22T23:37:08.742Z,91.60
2017-10-22T23:40:11.457Z,92.70
2017-10-22T23:43:13.386Z,92.70
2017-10-22T23:46:15.431Z,93.00
2017-10-22T23:49:17.385Z,93.30
2017-10-22T23:52:20.187Z,93.80
2017-10-22T23:55:22.907Z,93.90
2017-10-22T23:58:25.056Z,93.90
